createdAt,value
2022-11-29T00:01:15.536Z,69.30
2022-11-29T00:03:42.315Z,64.50
2022-11-29T00:06:12.086Z,69.30
2022-11-29T00:08:39.342Z,66.90
2022-11-29T00:11:20.850Z,70.90
2022-11-29T00:13:47.234Z,74.10
2022-11-29T00:16:13.787Z,72.80
2022-11-29T00:18:40.279Z,79.60
2022-11-29T00:21:08.435Z,83.10
2022-11-29T00:23:36.123Z,81.00
2022-11-29T00:26:05.167Z,76.40
2022-11-29T00:28:31.753Z,74.50
2022-11-29T00:30:58.379Z,83.80
2022-11-29T00:33:25.044Z,76.50
2022-11-29T00:35:51.694Z,76.70
2022-11-29T00:38:18.126Z,72.50
2022-11-29T00:40:44.686Z,75.40
2022-11-29T00:43:11.221Z,74.20
2022-11-29T00:45:37.699Z,70.80
2022-11-29T00:48:04.855Z,70.40
2022-11-29T00:50:31.349Z,68.30
2022-11-29T00:52:57.784Z,66.80
2022-11-29T00:55:24.196Z,68.00
2022-11-29T00:57:50.769Z,71.50
2022-11-29T01:00:17.821Z,67.10
2022-11-29T01:02:44.407Z,68.30
2022-11-29T01:05:10.909Z,71.60
2022-11-29T01:07:37.367Z,64.30
2022-11-29T01:10:04.549Z,61.60
2022-11-29T01:12:31.142Z,58.80
2022-11-29T01:14:58.812Z,62.90
2022-11-29T01:17:25.354Z,63.00
2022-11-29T01:19:51.894Z,62.00
2022-11-29T01:22:18.300Z,62.40
2022-11-29T01:24:45.090Z,59.30
2022-11-29T01:27:11.630Z,56.70
2022-11-29T01:29:38.903Z,53.70
2022-11-29T01:32:05.525Z,54.50
2022-11-29T01:34:31.920Z,53.00
2022-11-29T01:36:58.336Z,51.50
2022-11-29T01:39:24.873Z,50.30
2022-11-29T01:41:51.384Z,52.90
2022-11-29T01:44:17.757Z,52.50
2022-11-29T01:46:46.509Z,55.00
2022-11-29T01:49:23.711Z,52.70
2022-11-29T01:52:04.819Z,52.10
2022-11-29T01:54:34.594Z,39.20
2022-11-29T01:57:05.549Z,52.00
2022-11-29T01:59:32.811Z,48.70
2022-11-29T02:02:11.074Z,49.70
2022-11-29T02:04:46.203Z,48.50
2022-11-29T02:07:13.513Z,47.90
2022-11-29T02:09:39.943Z,48.20
2022-11-29T02:12:24.857Z,47.20
2022-11-29T02:15:15.430Z,46.90
2022-11-29T02:18:03.165Z,46.00
2022-11-29T02:20:47.830Z,50.70
2022-11-29T02:23:34.196Z,44.90
2022-11-29T02:26:18.673Z,44.30
2022-11-29T02:28:59.004Z,42.20
2022-11-29T02:32:04.830Z,43.70
2022-11-29T02:35:18.680Z,46.00
2022-11-29T02:37:57.308Z,45.00
2022-11-29T02:40:54.692Z,51.90
2022-11-29T02:43:40.226Z,47.80
2022-11-29T02:46:29.813Z,48.60
2022-11-29T02:49:22.391Z,46.00
2022-11-29T02:52:06.268Z,49.60
2022-11-29T02:54:46.601Z,47.10
2022-11-29T02:57:32.905Z,48.30
2022-11-29T03:00:26.129Z,49.60
2022-11-29T03:02:52.567Z,45.50
2022-11-29T03:05:48.035Z,44.00
2022-11-29T03:08:29.921Z,39.70
2022-11-29T03:11:08.755Z,38.90
2022-11-29T03:14:13.184Z,41.80
2022-11-29T03:16:51.407Z,42.60
2022-11-29T03:19:29.723Z,40.00
2022-11-29T03:22:06.032Z,39.70
2022-11-29T03:25:12.770Z,40.90
2022-11-29T03:28:15.256Z,39.00
2022-11-29T03:30:57.410Z,39.30
2022-11-29T03:33:32.919Z,40.80
2022-11-29T03:36:23.414Z,40.30
2022-11-29T03:38:55.014Z,43.00
2022-11-29T03:43:50.748Z,38.30
2022-11-29T03:46:35.025Z,42.80
2022-11-29T03:49:09.627Z,38.50
2022-11-29T03:51:48.470Z,39.70
2022-11-29T03:54:25.448Z,39.50
2022-11-29T03:56:52.241Z,38.40
2022-11-29T03:59:37.520Z,37.80
2022-11-29T04:02:48.572Z,40.50
2022-11-29T04:05:33.935Z,42.00
2022-11-29T04:08:24.936Z,43.70
2022-11-29T04:11:08.055Z,39.20
2022-11-29T04:14:19.759Z,38.90
2022-11-29T04:17:14.868Z,39.50
2022-11-29T04:20:00.252Z,36.90
2022-11-29T04:23:04.202Z,40.20
2022-11-29T04:26:07.883Z,39.70
2022-11-29T04:29:12.074Z,39.00
2022-11-29T04:32:16.025Z,42.70
2022-11-29T04:35:09.500Z,40.00
2022-11-29T04:37:57.541Z,43.80
2022-11-29T04:40:49.824Z,39.80
2022-11-29T04:43:42.044Z,42.10
2022-11-29T04:46:17.180Z,39.60
2022-11-29T04:49:39.832Z,40.20
2022-11-29T04:52:06.256Z,40.90
2022-11-29T04:54:42.607Z,41.70
2022-11-29T04:57:24.070Z,40.80
2022-11-29T05:00:05.422Z,39.80
2022-11-29T05:02:41.023Z,38.60
2022-11-29T05:05:28.590Z,39.90
2022-11-29T05:08:42.467Z,39.00
2022-11-29T05:11:23.403Z,37.40
2022-11-29T05:14:08.716Z,37.50
2022-11-29T05:16:53.659Z,37.10
2022-11-29T05:19:39.768Z,35.70
2022-11-29T05:22:15.309Z,33.80
2022-11-29T05:25:00.817Z,34.60
2022-11-29T05:27:52.222Z,34.00
2022-11-29T05:30:21.955Z,35.70
2022-11-29T05:33:42.669Z,36.10
2022-11-29T05:36:36.461Z,36.00
2022-11-29T05:39:24.610Z,36.40
2022-11-29T05:42:26.350Z,37.00
2022-11-29T05:45:37.458Z,43.60
2022-11-29T05:48:27.039Z,36.30
2022-11-29T05:51:19.900Z,45.40
2022-11-29T05:54:29.925Z,45.90
2022-11-29T05:57:28.941Z,46.40
2022-11-29T05:59:57.983Z,48.70
2022-11-29T06:02:27.666Z,41.30
2022-11-29T06:04:57.063Z,43.80
2022-11-29T06:07:36.250Z,38.20
2022-11-29T06:10:05.622Z,43.90
2022-11-29T06:12:34.898Z,40.70
2022-11-29T06:15:38.941Z,40.00
2022-11-29T06:18:27.428Z,47.20
2022-11-29T06:21:23.527Z,44.40
2022-11-29T06:23:59.520Z,43.20
2022-11-29T06:26:40.161Z,43.80
2022-11-29T06:29:20.320Z,46.60
2022-11-29T06:31:52.492Z,46.70
2022-11-29T06:34:37.746Z,43.50
2022-11-29T06:37:23.409Z,42.10
2022-11-29T06:39:50.723Z,46.10
2022-11-29T06:42:17.451Z,48.10
2022-11-29T06:44:44.539Z,41.80
2022-11-29T06:47:38.609Z,41.50
2022-11-29T06:50:20.119Z,40.00
2022-11-29T06:52:51.552Z,39.30
2022-11-29T06:55:27.553Z,41.20
2022-11-29T06:58:06.502Z,47.00
2022-11-29T07:01:03.679Z,45.60
2022-11-29T07:03:56.267Z,45.30
2022-11-29T07:06:25.987Z,46.50
2022-11-29T07:08:59.690Z,46.10
2022-11-29T07:11:27.479Z,46.70
2022-11-29T07:13:54.816Z,45.70
2022-11-29T07:16:28.306Z,56.90
2022-11-29T07:19:21.992Z,58.80
2022-11-29T07:21:59.432Z,57.30
2022-11-29T07:24:44.355Z,52.80
2022-11-29T07:27:20.123Z,49.30
2022-11-29T07:30:14.712Z,51.30
2022-11-29T07:32:52.040Z,49.50
2022-11-29T07:35:43.225Z,55.20
2022-11-29T07:38:33.829Z,53.10
2022-11-29T07:41:10.302Z,52.00
2022-11-29T07:44:08.791Z,53.80
2022-11-29T07:46:35.245Z,51.60
2022-11-29T07:49:01.769Z,51.40
2022-11-29T07:51:28.422Z,53.50
2022-11-29T07:53:54.972Z,59.10
2022-11-29T07:56:21.494Z,53.10
2022-11-29T07:58:48.193Z,55.80
2022-11-29T08:01:14.668Z,50.00
2022-11-29T08:03:42.549Z,50.80
2022-11-29T08:06:09.085Z,49.30
2022-11-29T08:08:39.256Z,47.00
2022-11-29T08:11:12.337Z,46.40
2022-11-29T08:13:38.759Z,45.20
2022-11-29T08:16:05.764Z,46.80
2022-11-29T08:18:32.329Z,52.00
2022-11-29T08:20:58.720Z,61.00
2022-11-29T08:23:25.098Z,61.70
2022-11-29T08:25:59.217Z,60.30
2022-11-29T08:28:25.758Z,61.80
2022-11-29T08:31:00.295Z,59.90
2022-11-29T08:33:27.032Z,63.90
2022-11-29T08:35:53.586Z,63.00
2022-11-29T08:38:20.195Z,57.20
2022-11-29T08:40:46.591Z,62.30
2022-11-29T08:43:13.043Z,56.30
2022-11-29T08:45:39.522Z,50.30
2022-11-29T08:48:06.500Z,54.00
2022-11-29T08:50:32.955Z,50.40
2022-11-29T08:52:59.380Z,46.90
2022-11-29T08:55:28.831Z,54.70
2022-11-29T08:58:01.757Z,52.10
2022-11-29T09:00:28.283Z,47.20
2022-11-29T09:02:54.949Z,41.90
2022-11-29T09:05:21.441Z,40.70
2022-11-29T09:07:47.952Z,38.10
2022-11-29T09:10:14.438Z,40.10
2022-11-29T09:12:41.199Z,38.00
2022-11-29T09:15:11.748Z,34.80
2022-11-29T09:17:38.159Z,35.80
2022-11-29T09:20:06.110Z,34.60
2022-11-29T09:22:32.583Z,35.00
2022-11-29T09:24:59.024Z,33.30
2022-11-29T09:27:25.645Z,36.00
2022-11-29T09:29:52.084Z,38.50
2022-11-29T09:32:18.493Z,33.20
2022-11-29T09:34:45.603Z,36.00
2022-11-29T09:37:12.314Z,35.90
2022-11-29T09:39:38.709Z,37.40
2022-11-29T09:42:56.114Z,32.60
2022-11-29T09:45:37.321Z,35.50
2022-11-29T09:48:25.394Z,33.40
2022-11-29T09:51:24.997Z,32.00
2022-11-29T09:54:24.575Z,31.40
2022-11-29T09:56:54.475Z,32.10
2022-11-29T09:59:29.044Z,29.20
2022-11-29T10:02:04.514Z,25.90
2022-11-29T10:04:38.568Z,28.20
2022-11-29T10:07:33.943Z,29.20
2022-11-29T10:10:27.201Z,28.40
2022-11-29T10:13:00.307Z,25.10
2022-11-29T10:15:38.901Z,29.10
2022-11-29T10:18:16.862Z,28.20
2022-11-29T10:20:48.925Z,26.60
2022-11-29T10:23:36.768Z,26.40
2022-11-29T10:26:05.059Z,26.60
2022-11-29T10:28:33.611Z,26.50
2022-11-29T10:31:24.362Z,25.90
2022-11-29T10:33:51.010Z,24.60
2022-11-29T10:36:23.455Z,23.60
2022-11-29T10:38:52.865Z,22.90
2022-11-29T10:41:22.784Z,23.50
2022-11-29T10:43:51.402Z,24.20
2022-11-29T10:46:37.084Z,23.90
2022-11-29T10:49:06.977Z,24.60
2022-11-29T10:51:34.047Z,25.80
2022-11-29T10:54:23.228Z,26.00
2022-11-29T10:56:50.823Z,23.20
2022-11-29T10:59:29.151Z,26.30
2022-11-29T11:01:57.338Z,24.40
2022-11-29T11:04:35.534Z,23.70
2022-11-29T11:07:04.800Z,26.10
2022-11-29T11:09:40.186Z,24.80
2022-11-29T11:12:18.171Z,23.20
2022-11-29T11:14:45.815Z,19.60
2022-11-29T11:17:24.248Z,21.40
2022-11-29T11:20:01.045Z,27.10
2022-11-29T11:22:29.244Z,28.20
2022-11-29T11:25:04.970Z,26.30
2022-11-29T11:27:39.001Z,23.70
2022-11-29T11:30:18.320Z,22.30
2022-11-29T11:33:22.333Z,22.00
2022-11-29T11:36:20.648Z,25.10
2022-11-29T11:39:12.363Z,23.30
2022-11-29T11:41:42.274Z,25.00
2022-11-29T11:44:50.463Z,22.00
2022-11-29T11:47:21.954Z,21.00
2022-11-29T11:52:22.047Z,23.10
2022-11-29T11:54:53.596Z,22.20
2022-11-29T11:57:22.544Z,20.30
2022-11-29T11:59:51.120Z,16.50
2022-11-29T12:02:38.009Z,14.30
2022-11-29T12:05:10.449Z,13.50
2022-11-29T12:08:13.661Z,13.80
2022-11-29T12:10:41.187Z,10.80
2022-11-29T12:13:17.759Z,12.10
2022-11-29T12:15:47.220Z,13.50
2022-11-29T12:18:26.925Z,13.30
2022-11-29T12:21:15.970Z,14.20
2022-11-29T12:24:02.396Z,15.10
2022-11-29T12:26:56.466Z,15.60
2022-11-29T12:29:19.961Z,14.90
2022-11-29T12:32:14.532Z,15.10
2022-11-29T12:34:49.638Z,15.40
2022-11-29T12:37:24.594Z,18.50
2022-11-29T12:39:59.976Z,16.70
2022-11-29T12:42:41.051Z,15.60
2022-11-29T12:45:59.089Z,16.60
2022-11-29T12:48:49.779Z,15.10
2022-11-29T12:51:29.723Z,14.10
2022-11-29T12:54:07.706Z,14.30
2022-11-29T12:56:43.118Z,15.00
2022-11-29T12:59:12.272Z,13.90
2022-11-29T13:01:41.457Z,12.70
2022-11-29T13:04:56.496Z,14.60
2022-11-29T13:07:47.582Z,17.50
2022-11-29T13:10:39.177Z,18.50
2022-11-29T13:15:59.209Z,18.10
2022-11-29T13:18:38.184Z,17.30
2022-11-29T13:21:21.472Z,15.20
2022-11-29T13:24:11.149Z,13.80
2022-11-29T13:26:41.834Z,13.30
2022-11-29T13:29:15.877Z,13.90
2022-11-29T13:31:44.168Z,12.80
2022-11-29T13:34:19.186Z,13.20
2022-11-29T13:37:15.396Z,14.00
2022-11-29T13:39:52.694Z,14.20
2022-11-29T13:43:00.950Z,15.30
2022-11-29T13:45:44.454Z,16.00
2022-11-29T13:48:29.121Z,15.90
2022-11-29T13:51:19.100Z,16.90
2022-11-29T13:53:49.195Z,15.80
2022-11-29T13:56:32.564Z,17.60
2022-11-29T13:59:01.093Z,19.00
2022-11-29T14:01:28.590Z,18.90
2022-11-29T14:04:36.422Z,17.90
2022-11-29T14:07:12.573Z,19.40
2022-11-29T14:10:12.138Z,18.00
2022-11-29T14:12:50.879Z,18.30
2022-11-29T14:15:29.313Z,19.30
2022-11-29T14:17:59.884Z,20.60
2022-11-29T14:20:26.323Z,22.00
2022-11-29T14:23:04.820Z,23.20
2022-11-29T14:26:01.385Z,25.50
2022-11-29T14:28:33.087Z,25.10
2022-11-29T14:31:04.079Z,37.70
2022-11-29T14:34:14.807Z,41.00
2022-11-29T14:36:44.205Z,47.40
2022-11-29T14:39:19.672Z,50.10
2022-11-29T14:41:56.314Z,37.10
2022-11-29T14:44:26.459Z,42.60
2022-11-29T14:47:05.286Z,38.60
2022-11-29T14:49:39.550Z,42.80
2022-11-29T14:52:15.137Z,35.30
2022-11-29T14:55:04.491Z,39.70
2022-11-29T14:57:49.382Z,34.50
2022-11-29T15:00:17.045Z,37.50
2022-11-29T15:03:08.273Z,100.60
2022-11-29T15:05:39.809Z,86.20
2022-11-29T15:11:02.640Z,57.20
2022-11-29T15:13:32.077Z,56.30
2022-11-29T15:16:16.005Z,60.80
2022-11-29T15:18:51.386Z,59.70
2022-11-29T15:21:49.794Z,100.50
2022-11-29T15:24:17.477Z,80.90
2022-11-29T15:27:00.384Z,75.70
2022-11-29T15:29:28.994Z,79.00
2022-11-29T15:32:03.522Z,80.20
2022-11-29T15:34:43.493Z,73.20
2022-11-29T15:37:23.630Z,75.20
2022-11-29T15:40:04.779Z,79.10
2022-11-29T15:42:44.339Z,114.40
2022-11-29T15:45:22.875Z,91.90
2022-11-29T15:47:49.610Z,87.80
2022-11-29T15:50:29.524Z,85.90
2022-11-29T15:53:03.206Z,107.80
2022-11-29T15:55:30.490Z,113.70
2022-11-29T15:58:03.892Z,89.90
2022-11-29T16:00:33.713Z,97.20
2022-11-29T16:03:02.482Z,99.00
2022-11-29T16:05:35.061Z,115.70
2022-11-29T16:08:05.964Z,129.70
2022-11-29T16:10:41.018Z,83.30
2022-11-29T16:13:29.391Z,98.70
2022-11-29T16:16:06.928Z,91.60
2022-11-29T16:18:33.787Z,121.40
2022-11-29T16:21:02.295Z,118.60
2022-11-29T16:23:41.202Z,117.90
2022-11-29T16:26:18.273Z,166.50
2022-11-29T16:28:47.688Z,159.30
2022-11-29T16:31:23.183Z,221.50
2022-11-29T16:33:51.927Z,180.40
2022-11-29T16:36:27.906Z,202.50
2022-11-29T16:39:00.103Z,148.20
2022-11-29T16:41:37.258Z,156.00
2022-11-29T16:44:06.198Z,122.20
2022-11-29T16:46:35.548Z,114.60
2022-11-29T16:49:23.907Z,98.40
2022-11-29T16:51:52.238Z,106.80
2022-11-29T16:54:22.848Z,148.90
2022-11-29T16:56:53.979Z,121.40
2022-11-29T16:59:27.526Z,120.80
2022-11-29T17:01:56.727Z,121.20
2022-11-29T17:04:24.339Z,105.20
2022-11-29T17:06:53.455Z,115.70
2022-11-29T17:09:29.501Z,119.10
2022-11-29T17:11:57.187Z,117.10
2022-11-29T17:14:23.712Z,111.50
2022-11-29T17:16:50.472Z,109.00
2022-11-29T17:19:18.114Z,116.30
2022-11-29T17:21:44.977Z,127.10
2022-11-29T17:24:13.757Z,132.20
2022-11-29T17:26:40.891Z,149.90
2022-11-29T17:29:07.300Z,135.60
2022-11-29T17:31:33.924Z,151.50
2022-11-29T17:34:00.635Z,120.20
2022-11-29T17:36:27.643Z,130.20
2022-11-29T17:38:54.408Z,125.30
2022-11-29T17:41:24.045Z,183.90
2022-11-29T17:43:51.805Z,154.70
2022-11-29T17:46:24.412Z,177.50
2022-11-29T17:48:51.226Z,179.10
2022-11-29T17:51:50.040Z,179.10
2022-11-29T17:54:07.759Z,173.80
2022-11-29T17:56:34.687Z,147.30
2022-11-29T17:59:03.104Z,155.80
2022-11-29T18:01:32.854Z,130.90
2022-11-29T18:04:01.498Z,144.60
2022-11-29T18:06:30.187Z,162.00
2022-11-29T18:09:00.819Z,141.70
2022-11-29T18:11:42.973Z,146.90
2022-11-29T18:14:13.976Z,174.50
2022-11-29T18:16:40.887Z,149.60
2022-11-29T18:19:10.558Z,173.10
2022-11-29T18:21:38.437Z,173.70
2022-11-29T18:24:06.668Z,163.80
2022-11-29T18:26:34.625Z,137.80
2022-11-29T18:29:01.289Z,166.30
2022-11-29T18:31:30.409Z,185.80
2022-11-29T18:34:00.343Z,232.70
2022-11-29T18:36:32.596Z,170.70
2022-11-29T18:39:01.622Z,261.00
2022-11-29T18:41:29.902Z,195.90
2022-11-29T18:44:02.751Z,212.70
2022-11-29T18:46:30.257Z,190.20
2022-11-29T18:48:56.673Z,159.70
2022-11-29T18:51:23.123Z,163.50
2022-11-29T18:53:49.498Z,171.70
2022-11-29T18:56:18.838Z,190.60
2022-11-29T18:58:47.221Z,193.10
2022-11-29T19:01:16.051Z,192.30
2022-11-29T19:03:45.525Z,216.30
2022-11-29T19:06:15.139Z,231.20
2022-11-29T19:08:42.703Z,235.90
2022-11-29T19:11:14.514Z,212.20
2022-11-29T19:13:42.026Z,204.90
2022-11-29T19:16:13.159Z,190.80
2022-11-29T19:18:40.132Z,201.00
2022-11-29T19:21:10.241Z,221.10
2022-11-29T19:23:36.691Z,191.70
2022-11-29T19:26:08.774Z,189.90
2022-11-29T19:28:36.777Z,181.70
2022-11-29T19:31:03.889Z,177.60
2022-11-29T19:33:30.618Z,179.70
2022-11-29T19:35:57.360Z,158.10
2022-11-29T19:38:23.794Z,163.10
2022-11-29T19:40:50.334Z,165.50
2022-11-29T19:43:16.801Z,212.90
2022-11-29T19:45:43.309Z,181.90
2022-11-29T19:48:09.847Z,161.60
2022-11-29T19:50:36.357Z,177.50
2022-11-29T19:53:02.792Z,197.80
2022-11-29T19:55:31.008Z,188.70
2022-11-29T19:57:57.413Z,168.10
2022-11-29T20:00:24.085Z,166.60
2022-11-29T20:02:50.695Z,158.10
2022-11-29T20:05:17.491Z,144.60
2022-11-29T20:07:44.057Z,144.10
2022-11-29T20:10:11.184Z,142.30
2022-11-29T20:12:37.718Z,125.40
2022-11-29T20:15:04.863Z,123.60
2022-11-29T20:17:31.409Z,125.30
2022-11-29T20:19:58.009Z,123.80
2022-11-29T20:22:24.689Z,128.90
2022-11-29T20:24:51.126Z,124.80
2022-11-29T20:27:17.561Z,124.80
2022-11-29T20:29:44.312Z,118.70
2022-11-29T20:32:11.357Z,112.10
2022-11-29T20:34:38.086Z,108.50
2022-11-29T20:37:23.683Z,100.40
2022-11-29T20:39:57.071Z,99.50
2022-11-29T20:42:29.611Z,100.70
2022-11-29T20:45:05.451Z,100.60
2022-11-29T20:47:40.869Z,100.40
2022-11-29T20:50:08.461Z,118.50
2022-11-29T20:52:37.736Z,143.70
2022-11-29T20:55:05.484Z,125.50
2022-11-29T20:57:31.927Z,103.00
2022-11-29T20:59:58.438Z,104.70
2022-11-29T21:02:25.022Z,99.10
2022-11-29T21:04:51.634Z,101.10
2022-11-29T21:07:18.173Z,100.30
2022-11-29T21:09:45.354Z,98.50
2022-11-29T21:12:12.845Z,95.30
2022-11-29T21:14:39.655Z,88.20
2022-11-29T21:17:06.713Z,84.20
2022-11-29T21:19:33.570Z,81.00
2022-11-29T21:22:21.910Z,95.00
2022-11-29T21:25:00.633Z,93.10
2022-11-29T21:27:31.785Z,94.20
2022-11-29T21:29:58.675Z,93.50
2022-11-29T21:32:27.324Z,80.30
2022-11-29T21:34:53.964Z,85.90
2022-11-29T21:37:25.161Z,90.70
2022-11-29T21:39:53.271Z,83.40
2022-11-29T21:42:20.138Z,81.90
2022-11-29T21:44:47.343Z,84.10
2022-11-29T21:47:15.475Z,84.10
2022-11-29T21:49:42.023Z,85.60
2022-11-29T21:52:08.452Z,89.60
2022-11-29T21:54:34.849Z,86.30
2022-11-29T21:57:01.428Z,78.00
2022-11-29T21:59:27.851Z,70.30
2022-11-29T22:01:54.709Z,76.80
2022-11-29T22:04:21.458Z,73.80
2022-11-29T22:06:47.996Z,65.00
2022-11-29T22:09:14.627Z,64.60
2022-11-29T22:11:41.176Z,72.30
2022-11-29T22:14:10.410Z,76.00
2022-11-29T22:16:36.841Z,63.50
2022-11-29T22:19:03.325Z,60.90
2022-11-29T22:21:30.003Z,53.90
2022-11-29T22:23:56.546Z,52.00
2022-11-29T22:26:23.287Z,51.10
2022-11-29T22:28:49.856Z,50.60
2022-11-29T22:31:16.393Z,53.70
2022-11-29T22:33:43.055Z,56.60
2022-11-29T22:36:12.915Z,52.60
2022-11-29T22:38:40.202Z,49.80
2022-11-29T22:41:10.086Z,49.20
2022-11-29T22:43:37.683Z,50.50
2022-11-29T22:46:09.021Z,50.30
2022-11-29T22:48:38.912Z,50.50
2022-11-29T22:51:11.528Z,49.10
2022-11-29T22:53:40.307Z,47.10
2022-11-29T22:56:09.123Z,46.30
2022-11-29T22:58:36.257Z,49.00
2022-11-29T23:01:26.677Z,47.50
2022-11-29T23:03:55.588Z,48.00
2022-11-29T23:06:25.332Z,45.30
2022-11-29T23:08:54.257Z,46.80
2022-11-29T23:11:25.132Z,48.90
2022-11-29T23:13:51.984Z,35.50
2022-11-29T23:16:21.766Z,48.90
2022-11-29T23:18:48.542Z,50.20
2022-11-29T23:21:22.090Z,47.00
2022-11-29T23:23:54.494Z,47.80
2022-11-29T23:26:47.592Z,46.80
2022-11-29T23:29:18.061Z,58.60
2022-11-29T23:31:45.696Z,59.00
2022-11-29T23:34:13.256Z,60.00
2022-11-29T23:36:39.799Z,58.40
2022-11-29T23:39:07.170Z,58.60
2022-11-29T23:41:35.594Z,54.80
2022-11-29T23:44:05.502Z,57.80
2022-11-29T23:46:32.211Z,54.50
2022-11-29T23:48:58.735Z,52.20
2022-11-29T23:51:25.194Z,55.20
2022-11-29T23:53:53.375Z,56.90
2022-11-29T23:56:21.451Z,55.70
2022-11-29T23:58:47.995Z,53.50
